sensor_id;sensor_type;location;lat;lon;timestamp;temperature;humidity
69895;DHT22;57172;52.034;5.090;2023-04-02T00:02:46;8.20;84.30
69895;DHT22;57172;52.034;5.090;2023-04-02T00:07:50;8.10;83.50
69895;DHT22;57172;52.034;5.090;2023-04-02T00:10:48;8.10;84.00
69895;DHT22;57172;52.034;5.090;2023-04-02T00:15:45;8.00;83.90
69895;DHT22;57172;52.034;5.090;2023-04-02T00:18:16;8.00;84.00
69895;DHT22;57172;52.034;5.090;2023-04-02T00:20:49;8.00;84.30
69895;DHT22;57172;52.034;5.090;2023-04-02T00:23:18;8.00;84.10
69895;DHT22;57172;52.034;5.090;2023-04-02T00:25:45;8.00;84.10
69895;DHT22;57172;52.034;5.090;2023-04-02T00:28:19;8.00;84.00
69895;DHT22;57172;52.034;5.090;2023-04-02T00:30:51;8.00;84.30
69895;DHT22;57172;52.034;5.090;2023-04-02T00:33:22;8.00;84.00
69895;DHT22;57172;52.034;5.090;2023-04-02T00:35:50;8.00;83.90
69895;DHT22;57172;52.034;5.090;2023-04-02T00:40:55;8.00;84.10
69895;DHT22;57172;52.034;5.090;2023-04-02T00:43:24;8.00;83.90
69895;DHT22;57172;52.034;5.090;2023-04-02T00:45:56;7.90;83.60
69895;DHT22;57172;52.034;5.090;2023-04-02T00:51:00;7.90;83.30
69895;DHT22;57172;52.034;5.090;2023-04-02T00:53:33;7.90;83.70
69895;DHT22;57172;52.034;5.090;2023-04-02T00:56:02;7.80;83.40
69895;DHT22;57172;52.034;5.090;2023-04-02T00:58:33;7.90;83.50
69895;DHT22;57172;52.034;5.090;2023-04-02T01:01:01;7.80;83.70
69895;DHT22;57172;52.034;5.090;2023-04-02T01:03:35;7.80;83.50
69895;DHT22;57172;52.034;5.090;2023-04-02T01:06:10;7.80;83.90
69895;DHT22;57172;52.034;5.090;2023-04-02T01:22:32;7.60;83.20
69895;DHT22;57172;52.034;5.090;2023-04-02T01:25:02;7.60;83.20
69895;DHT22;57172;52.034;5.090;2023-04-02T01:27:39;7.60;83.20
69895;DHT22;57172;52.034;5.090;2023-04-02T01:30:10;7.60;83.70
69895;DHT22;57172;52.034;5.090;2023-04-02T01:32:38;7.60;83.70
69895;DHT22;57172;52.034;5.090;2023-04-02T01:35:08;7.60;83.50
69895;DHT22;57172;52.034;5.090;2023-04-02T01:37:45;7.60;83.50
69895;DHT22;57172;52.034;5.090;2023-04-02T01:46:31;7.60;83.50
69895;DHT22;57172;52.034;5.090;2023-04-02T01:49:19;7.60;83.30
69895;DHT22;57172;52.034;5.090;2023-04-02T01:51:51;7.60;83.40
69895;DHT22;57172;52.034;5.090;2023-04-02T01:54:21;7.50;83.20
69895;DHT22;57172;52.034;5.090;2023-04-02T01:56:49;7.50;82.90
69895;DHT22;57172;52.034;5.090;2023-04-02T01:59:19;7.40;83.10
69895;DHT22;57172;52.034;5.090;2023-04-02T02:01:57;7.40;83.20
69895;DHT22;57172;52.034;5.090;2023-04-02T02:04:27;7.40;83.30
69895;DHT22;57172;52.034;5.090;2023-04-02T02:06:56;7.40;83.10
69895;DHT22;57172;52.034;5.090;2023-04-02T02:09:27;7.40;83.40
69895;DHT22;57172;52.034;5.090;2023-04-02T02:11:59;7.40;83.30
69895;DHT22;57172;52.034;5.090;2023-04-02T02:14:29;7.30;82.90
69895;DHT22;57172;52.034;5.090;2023-04-02T02:17:01;7.30;83.20
69895;DHT22;57172;52.034;5.090;2023-04-02T02:19:41;7.30;83.70
69895;DHT22;57172;52.034;5.090;2023-04-02T02:24:40;7.40;83.60
69895;DHT22;57172;52.034;5.090;2023-04-02T02:30:19;7.30;83.20
69895;DHT22;57172;52.034;5.090;2023-04-02T02:33:15;7.30;83.20
69895;DHT22;57172;52.034;5.090;2023-04-02T02:36:03;7.30;83.40
69895;DHT22;57172;52.034;5.090;2023-04-02T02:38:55;7.30;83.40
69895;DHT22;57172;52.034;5.090;2023-04-02T02:41:44;7.30;83.30
69895;DHT22;57172;52.034;5.090;2023-04-02T02:44:23;7.30;83.40
69895;DHT22;57172;52.034;5.090;2023-04-02T02:47:13;7.30;83.20
69895;DHT22;57172;52.034;5.090;2023-04-02T02:49:54;7.30;83.40
69895;DHT22;57172;52.034;5.090;2023-04-02T02:52:36;7.20;82.90
69895;DHT22;57172;52.034;5.090;2023-04-02T02:55:29;7.20;83.00
69895;DHT22;57172;52.034;5.090;2023-04-02T02:58:08;7.10;82.80
69895;DHT22;57172;52.034;5.090;2023-04-02T03:00:47;7.10;83.00
69895;DHT22;57172;52.034;5.090;2023-04-02T03:03:18;7.10;82.80
69895;DHT22;57172;52.034;5.090;2023-04-02T03:05:54;7.10;82.70
69895;DHT22;57172;52.034;5.090;2023-04-02T03:08:58;7.00;82.00
69895;DHT22;57172;52.034;5.090;2023-04-02T03:11:40;6.90;81.50
69895;DHT22;57172;52.034;5.090;2023-04-02T03:14:42;6.80;81.70
69895;DHT22;57172;52.034;5.090;2023-04-02T03:17:23;6.70;82.10
69895;DHT22;57172;52.034;5.090;2023-04-02T03:20:00;6.70;82.10
69895;DHT22;57172;52.034;5.090;2023-04-02T03:22:55;6.60;82.00
69895;DHT22;57172;52.034;5.090;2023-04-02T03:25:46;6.60;82.10
69895;DHT22;57172;52.034;5.090;2023-04-02T03:28:27;6.50;82.20
69895;DHT22;57172;52.034;5.090;2023-04-02T03:31:07;6.50;81.90
69895;DHT22;57172;52.034;5.090;2023-04-02T03:33:39;6.40;81.70
69895;DHT22;57172;52.034;5.090;2023-04-02T03:36:19;6.40;81.90
69895;DHT22;57172;52.034;5.090;2023-04-02T03:38:56;6.30;81.80
69895;DHT22;57172;52.034;5.090;2023-04-02T03:41:33;6.30;81.70
69895;DHT22;57172;52.034;5.090;2023-04-02T03:44:10;6.30;82.10
69895;DHT22;57172;52.034;5.090;2023-04-02T03:46:51;6.30;82.40
69895;DHT22;57172;52.034;5.090;2023-04-02T03:49:35;6.30;82.80
69895;DHT22;57172;52.034;5.090;2023-04-02T03:52:17;6.40;82.80
69895;DHT22;57172;52.034;5.090;2023-04-02T03:54:46;6.40;82.70
69895;DHT22;57172;52.034;5.090;2023-04-02T04:02:51;6.40;82.40
69895;DHT22;57172;52.034;5.090;2023-04-02T04:05:29;6.40;82.40
69895;DHT22;57172;52.034;5.090;2023-04-02T04:08:06;6.30;82.20
69895;DHT22;57172;52.034;5.090;2023-04-02T04:10:34;6.30;82.20
69895;DHT22;57172;52.034;5.090;2023-04-02T04:13:08;6.30;82.20
69895;DHT22;57172;52.034;5.090;2023-04-02T04:15:59;6.30;82.30
69895;DHT22;57172;52.034;5.090;2023-04-02T04:19:20;6.30;82.20
69895;DHT22;57172;52.034;5.090;2023-04-02T04:21:25;6.30;82.00
69895;DHT22;57172;52.034;5.090;2023-04-02T04:24:22;6.20;81.70
69895;DHT22;57172;52.034;5.090;2023-04-02T04:27:04;6.20;81.70
69895;DHT22;57172;52.034;5.090;2023-04-02T04:32:18;6.20;81.40
69895;DHT22;57172;52.034;5.090;2023-04-02T04:37:45;6.20;82.20
69895;DHT22;57172;52.034;5.090;2023-04-02T04:40:22;6.20;82.20
69895;DHT22;57172;52.034;5.090;2023-04-02T04:42:56;6.20;82.10
69895;DHT22;57172;52.034;5.090;2023-04-02T04:45:46;6.30;82.00
69895;DHT22;57172;52.034;5.090;2023-04-02T04:51:00;6.20;81.30
69895;DHT22;57172;52.034;5.090;2023-04-02T04:53:29;6.20;82.00
69895;DHT22;57172;52.034;5.090;2023-04-02T04:56:00;6.20;81.60
69895;DHT22;57172;52.034;5.090;2023-04-02T04:58:52;6.20;82.00
69895;DHT22;57172;52.034;5.090;2023-04-02T05:01:26;6.20;81.50
69895;DHT22;57172;52.034;5.090;2023-04-02T05:04:08;6.20;80.70
69895;DHT22;57172;52.034;5.090;2023-04-02T05:06:59;6.10;81.10
69895;DHT22;57172;52.034;5.090;2023-04-02T05:15:27;6.00;80.50
69895;DHT22;57172;52.034;5.090;2023-04-02T05:18:27;6.00;81.20
69895;DHT22;57172;52.034;5.090;2023-04-02T05:26:49;5.90;80.10
69895;DHT22;57172;52.034;5.090;2023-04-02T05:29:31;5.80;80.10
69895;DHT22;57172;52.034;5.090;2023-04-02T05:32:12;5.80;80.90
69895;DHT22;57172;52.034;5.090;2023-04-02T05:34:45;5.80;80.90
69895;DHT22;57172;52.034;5.090;2023-04-02T05:37:19;5.80;80.90
69895;DHT22;57172;52.034;5.090;2023-04-02T05:39:58;5.80;80.60
69895;DHT22;57172;52.034;5.090;2023-04-02T05:42:30;5.80;80.40
69895;DHT22;57172;52.034;5.090;2023-04-02T05:47:41;5.70;80.00
69895;DHT22;57172;52.034;5.090;2023-04-02T05:50:23;5.60;80.00
69895;DHT22;57172;52.034;5.090;2023-04-02T05:59:12;5.60;80.60
69895;DHT22;57172;52.034;5.090;2023-04-02T06:04:27;5.60;80.10
69895;DHT22;57172;52.034;5.090;2023-04-02T06:07:03;5.60;79.40
69895;DHT22;57172;52.034;5.090;2023-04-02T06:10:02;5.50;79.60
69895;DHT22;57172;52.034;5.090;2023-04-02T06:15:22;5.50;78.50
69895;DHT22;57172;52.034;5.090;2023-04-02T06:17:58;5.40;78.20
69895;DHT22;57172;52.034;5.090;2023-04-02T06:20:26;5.40;79.40
69895;DHT22;57172;52.034;5.090;2023-04-02T06:23:20;5.50;79.70
69895;DHT22;57172;52.034;5.090;2023-04-02T06:26:12;5.50;79.90
69895;DHT22;57172;52.034;5.090;2023-04-02T06:28:47;5.50;79.10
69895;DHT22;57172;52.034;5.090;2023-04-02T06:31:46;5.50;78.50
69895;DHT22;57172;52.034;5.090;2023-04-02T06:34:20;5.40;78.60
69895;DHT22;57172;52.034;5.090;2023-04-02T06:37:02;5.40;78.00
69895;DHT22;57172;52.034;5.090;2023-04-02T06:39:33;5.40;78.50
69895;DHT22;57172;52.034;5.090;2023-04-02T06:42:10;5.40;78.40
69895;DHT22;57172;52.034;5.090;2023-04-02T06:44:56;5.40;79.00
69895;DHT22;57172;52.034;5.090;2023-04-02T06:47:43;5.40;78.80
69895;DHT22;57172;52.034;5.090;2023-04-02T06:52:59;5.40;77.40
69895;DHT22;57172;52.034;5.090;2023-04-02T06:55:42;5.30;77.80
69895;DHT22;57172;52.034;5.090;2023-04-02T06:58:09;5.30;78.30
69895;DHT22;57172;52.034;5.090;2023-04-02T07:00:43;5.40;77.70
69895;DHT22;57172;52.034;5.090;2023-04-02T07:03:26;5.30;77.50
69895;DHT22;57172;52.034;5.090;2023-04-02T07:05:56;5.30;78.00
69895;DHT22;57172;52.034;5.090;2023-04-02T07:08:23;5.30;78.40
69895;DHT22;57172;52.034;5.090;2023-04-02T07:10:51;5.40;78.10
69895;DHT22;57172;52.034;5.090;2023-04-02T07:13:20;5.40;77.30
69895;DHT22;57172;52.034;5.090;2023-04-02T07:15:50;5.30;77.40
69895;DHT22;57172;52.034;5.090;2023-04-02T07:18:32;5.30;77.30
69895;DHT22;57172;52.034;5.090;2023-04-02T07:21:02;5.30;77.60
69895;DHT22;57172;52.034;5.090;2023-04-02T07:23:29;5.20;77.30
69895;DHT22;57172;52.034;5.090;2023-04-02T07:25:56;5.20;77.80
69895;DHT22;57172;52.034;5.090;2023-04-02T07:28:24;5.20;77.20
69895;DHT22;57172;52.034;5.090;2023-04-02T07:30:52;5.10;77.50
69895;DHT22;57172;52.034;5.090;2023-04-02T07:33:22;5.10;77.50
69895;DHT22;57172;52.034;5.090;2023-04-02T07:35:51;5.20;78.60
69895;DHT22;57172;52.034;5.090;2023-04-02T07:38:18;5.20;78.60
69895;DHT22;57172;52.034;5.090;2023-04-02T07:40:45;5.30;78.60
69895;DHT22;57172;52.034;5.090;2023-04-02T07:43:13;5.30;78.30
69895;DHT22;57172;52.034;5.090;2023-04-02T07:45:41;5.40;78.70
69895;DHT22;57172;52.034;5.090;2023-04-02T07:48:10;5.40;78.20
69895;DHT22;57172;52.034;5.090;2023-04-02T07:50:37;5.40;78.10
69895;DHT22;57172;52.034;5.090;2023-04-02T07:53:04;5.50;77.90
69895;DHT22;57172;52.034;5.090;2023-04-02T07:55:32;5.40;77.50
69895;DHT22;57172;52.034;5.090;2023-04-02T07:57:59;5.40;78.10
69895;DHT22;57172;52.034;5.090;2023-04-02T08:00:27;5.50;78.80
69895;DHT22;57172;52.034;5.090;2023-04-02T08:02:54;5.50;78.70
69895;DHT22;57172;52.034;5.090;2023-04-02T08:05:22;5.60;78.20
69895;DHT22;57172;52.034;5.090;2023-04-02T08:07:53;5.60;77.80
69895;DHT22;57172;52.034;5.090;2023-04-02T08:10:21;5.60;78.20
69895;DHT22;57172;52.034;5.090;2023-04-02T08:12:48;5.60;78.40
69895;DHT22;57172;52.034;5.090;2023-04-02T08:15:16;5.60;77.70
69895;DHT22;57172;52.034;5.090;2023-04-02T08:17:43;5.60;77.50
69895;DHT22;57172;52.034;5.090;2023-04-02T08:20:16;5.50;77.20
69895;DHT22;57172;52.034;5.090;2023-04-02T08:22:47;5.50;77.40
69895;DHT22;57172;52.034;5.090;2023-04-02T08:25:15;5.50;77.90
69895;DHT22;57172;52.034;5.090;2023-04-02T08:27:44;5.60;78.10
69895;DHT22;57172;52.034;5.090;2023-04-02T08:30:15;5.60;77.70
69895;DHT22;57172;52.034;5.090;2023-04-02T08:32:43;5.60;78.40
69895;DHT22;57172;52.034;5.090;2023-04-02T08:35:12;5.70;78.90
69895;DHT22;57172;52.034;5.090;2023-04-02T08:37:40;5.80;78.20
69895;DHT22;57172;52.034;5.090;2023-04-02T08:40:34;5.80;77.40
69895;DHT22;57172;52.034;5.090;2023-04-02T08:43:57;5.80;78.00
69895;DHT22;57172;52.034;5.090;2023-04-02T08:48:58;6.00;78.30
69895;DHT22;57172;52.034;5.090;2023-04-02T08:51:34;6.10;78.10
69895;DHT22;57172;52.034;5.090;2023-04-02T08:54:26;6.10;77.80
69895;DHT22;57172;52.034;5.090;2023-04-02T09:00:00;6.20;77.60
69895;DHT22;57172;52.034;5.090;2023-04-02T09:02:39;6.30;77.30
69895;DHT22;57172;52.034;5.090;2023-04-02T09:05:22;6.30;77.30
69895;DHT22;57172;52.034;5.090;2023-04-02T09:07:52;6.40;77.70
69895;DHT22;57172;52.034;5.090;2023-04-02T09:10:30;6.50;77.10
69895;DHT22;57172;52.034;5.090;2023-04-02T09:12:59;6.60;77.70
69895;DHT22;57172;52.034;5.090;2023-04-02T09:15:33;6.70;77.20
69895;DHT22;57172;52.034;5.090;2023-04-02T09:18:14;6.80;77.10
69895;DHT22;57172;52.034;5.090;2023-04-02T09:20:42;6.90;76.30
69895;DHT22;57172;52.034;5.090;2023-04-02T09:23:16;6.90;76.00
69895;DHT22;57172;52.034;5.090;2023-04-02T09:25:46;6.90;75.50
69895;DHT22;57172;52.034;5.090;2023-04-02T09:28:26;6.80;75.80
69895;DHT22;57172;52.034;5.090;2023-04-02T09:31:15;6.80;75.20
69895;DHT22;57172;52.034;5.090;2023-04-02T09:33:49;6.80;76.10
69895;DHT22;57172;52.034;5.090;2023-04-02T09:36:39;6.90;76.20
69895;DHT22;57172;52.034;5.090;2023-04-02T09:39:20;7.00;76.20
69895;DHT22;57172;52.034;5.090;2023-04-02T09:41:48;7.10;75.90
69895;DHT22;57172;52.034;5.090;2023-04-02T09:44:31;7.10;75.70
69895;DHT22;57172;52.034;5.090;2023-04-02T09:47:03;7.10;75.50
69895;DHT22;57172;52.034;5.090;2023-04-02T09:49:38;7.10;74.80
69895;DHT22;57172;52.034;5.090;2023-04-02T09:52:19;7.10;75.10
69895;DHT22;57172;52.034;5.090;2023-04-02T09:55:15;7.10;75.20
69895;DHT22;57172;52.034;5.090;2023-04-02T09:57:43;7.10;74.80
69895;DHT22;57172;52.034;5.090;2023-04-02T10:00:15;7.00;74.80
69895;DHT22;57172;52.034;5.090;2023-04-02T10:03:26;7.20;76.40
69895;DHT22;57172;52.034;5.090;2023-04-02T10:06:23;7.40;75.10
69895;DHT22;57172;52.034;5.090;2023-04-02T10:08:50;7.50;75.50
69895;DHT22;57172;52.034;5.090;2023-04-02T10:11:24;7.60;74.10
69895;DHT22;57172;52.034;5.090;2023-04-02T10:14:38;7.50;73.80
69895;DHT22;57172;52.034;5.090;2023-04-02T10:17:18;8.00;83.60
69895;DHT22;57172;52.034;5.090;2023-04-02T10:19:49;9.20;90.20
69895;DHT22;57172;52.034;5.090;2023-04-02T10:22:19;10.50;89.40
69895;DHT22;57172;52.034;5.090;2023-04-02T10:24:47;11.70;86.90
69895;DHT22;57172;52.034;5.090;2023-04-02T10:27:39;12.80;86.80
69895;DHT22;57172;52.034;5.090;2023-04-02T10:30:29;14.20;82.10
69895;DHT22;57172;52.034;5.090;2023-04-02T10:33:04;15.60;79.70
69895;DHT22;57172;52.034;5.090;2023-04-02T10:35:52;16.50;76.10
69895;DHT22;57172;52.034;5.090;2023-04-02T10:52:38;18.70;66.10
69895;DHT22;57172;52.034;5.090;2023-04-02T10:55:20;19.00;61.70
69895;DHT22;57172;52.034;5.090;2023-04-02T10:57:50;19.00;62.50
69895;DHT22;57172;52.034;5.090;2023-04-02T11:00:31;19.10;62.30
69895;DHT22;57172;52.034;5.090;2023-04-02T11:03:13;19.40;63.10
69895;DHT22;57172;52.034;5.090;2023-04-02T11:06:05;19.60;60.50
69895;DHT22;57172;52.034;5.090;2023-04-02T11:08:41;19.80;62.80
69895;DHT22;57172;52.034;5.090;2023-04-02T11:11:20;20.40;63.10
69895;DHT22;57172;52.034;5.090;2023-04-02T11:13:55;20.70;60.60
69895;DHT22;57172;52.034;5.090;2023-04-02T11:16:23;21.10;60.50
69895;DHT22;57172;52.034;5.090;2023-04-02T11:21:58;22.30;56.10
69895;DHT22;57172;52.034;5.090;2023-04-02T11:29:42;22.30;55.60
69895;DHT22;57172;52.034;5.090;2023-04-02T11:37:40;22.40;57.80
69895;DHT22;57172;52.034;5.090;2023-04-02T11:50:31;23.10;54.10
69895;DHT22;57172;52.034;5.090;2023-04-02T11:53:02;23.10;53.00
69895;DHT22;57172;52.034;5.090;2023-04-02T11:55:33;22.90;53.40
69895;DHT22;57172;52.034;5.090;2023-04-02T12:11:55;23.60;50.50
69895;DHT22;57172;52.034;5.090;2023-04-02T12:17:12;23.70;52.50
69895;DHT22;57172;52.034;5.090;2023-04-02T12:19:50;23.80;51.10
69895;DHT22;57172;52.034;5.090;2023-04-02T12:22:24;23.60;49.60
69895;DHT22;57172;52.034;5.090;2023-04-02T12:24:54;23.50;50.70
69895;DHT22;57172;52.034;5.090;2023-04-02T12:27:25;23.50;51.20
69895;DHT22;57172;52.034;5.090;2023-04-02T12:29:55;23.70;53.30
69895;DHT22;57172;52.034;5.090;2023-04-02T12:32:24;24.00;52.00
69895;DHT22;57172;52.034;5.090;2023-04-02T12:34:56;24.10;52.00
69895;DHT22;57172;52.034;5.090;2023-04-02T12:37:28;24.00;49.30
69895;DHT22;57172;52.034;5.090;2023-04-02T12:40:01;23.80;49.60
69895;DHT22;57172;52.034;5.090;2023-04-02T12:42:34;23.60;49.80
69895;DHT22;57172;52.034;5.090;2023-04-02T12:45:04;23.60;50.50
69895;DHT22;57172;52.034;5.090;2023-04-02T12:47:32;23.60;49.40
69895;DHT22;57172;52.034;5.090;2023-04-02T12:50:00;23.90;51.30
69895;DHT22;57172;52.034;5.090;2023-04-02T12:52:28;24.30;50.40
69895;DHT22;57172;52.034;5.090;2023-04-02T12:54:58;24.40;50.10
69895;DHT22;57172;52.034;5.090;2023-04-02T12:57:32;24.60;49.30
69895;DHT22;57172;52.034;5.090;2023-04-02T13:05:35;24.20;47.20
69895;DHT22;57172;52.034;5.090;2023-04-02T13:08:03;24.20;50.90
69895;DHT22;57172;52.034;5.090;2023-04-02T13:10:31;24.20;48.60
69895;DHT22;57172;52.034;5.090;2023-04-02T13:13:02;23.90;47.40
69895;DHT22;57172;52.034;5.090;2023-04-02T13:15:31;23.70;48.20
69895;DHT22;57172;52.034;5.090;2023-04-02T13:18:17;23.60;49.20
69895;DHT22;57172;52.034;5.090;2023-04-02T13:20:55;23.60;50.10
69895;DHT22;57172;52.034;5.090;2023-04-02T13:26:00;24.10;50.80
69895;DHT22;57172;52.034;5.090;2023-04-02T13:28:27;24.30;51.30
69895;DHT22;57172;52.034;5.090;2023-04-02T13:30:54;24.60;50.80
69895;DHT22;57172;52.034;5.090;2023-04-02T13:33:22;24.60;49.60
69895;DHT22;57172;52.034;5.090;2023-04-02T13:35:48;24.70;50.20
69895;DHT22;57172;52.034;5.090;2023-04-02T13:38:15;24.70;51.30
69895;DHT22;57172;52.034;5.090;2023-04-02T13:40:42;24.90;50.20
69895;DHT22;57172;52.034;5.090;2023-04-02T13:43:16;24.90;48.00
69895;DHT22;57172;52.034;5.090;2023-04-02T13:45:52;24.70;48.50
69895;DHT22;57172;52.034;5.090;2023-04-02T13:48:20;24.70;49.20
69895;DHT22;57172;52.034;5.090;2023-04-02T13:50:51;24.70;48.10
69895;DHT22;57172;52.034;5.090;2023-04-02T13:53:27;24.50;49.90
69895;DHT22;57172;52.034;5.090;2023-04-02T13:55:55;24.40;47.20
69895;DHT22;57172;52.034;5.090;2023-04-02T13:58:22;24.20;49.50
69895;DHT22;57172;52.034;5.090;2023-04-02T14:00:49;24.10;50.20
69895;DHT22;57172;52.034;5.090;2023-04-02T14:03:19;24.20;50.80
69895;DHT22;57172;52.034;5.090;2023-04-02T14:11:16;24.00;48.90
69895;DHT22;57172;52.034;5.090;2023-04-02T14:35:01;24.00;50.20
69895;DHT22;57172;52.034;5.090;2023-04-02T14:37:33;23.90;48.80
69895;DHT22;57172;52.034;5.090;2023-04-02T14:40:11;23.80;51.60
69895;DHT22;57172;52.034;5.090;2023-04-02T14:42:48;24.00;49.50
69895;DHT22;57172;52.034;5.090;2023-04-02T14:45:45;23.80;50.10
69895;DHT22;57172;52.034;5.090;2023-04-02T14:50:47;23.50;50.00
69895;DHT22;57172;52.034;5.090;2023-04-02T14:53:22;23.30;49.50
69895;DHT22;57172;52.034;5.090;2023-04-02T14:55:51;23.20;51.30
69895;DHT22;57172;52.034;5.090;2023-04-02T14:58:24;23.40;52.40
69895;DHT22;57172;52.034;5.090;2023-04-02T15:01:01;23.20;49.70
69895;DHT22;57172;52.034;5.090;2023-04-02T15:03:34;23.10;51.10
69895;DHT22;57172;52.034;5.090;2023-04-02T15:06:05;23.20;50.70
69895;DHT22;57172;52.034;5.090;2023-04-02T15:11:13;23.00;52.10
69895;DHT22;57172;52.034;5.090;2023-04-02T15:13:51;23.00;51.90
69895;DHT22;57172;52.034;5.090;2023-04-02T15:16:23;23.00;51.70
69895;DHT22;57172;52.034;5.090;2023-04-02T15:18:58;22.90;52.00
69895;DHT22;57172;52.034;5.090;2023-04-02T15:27:20;22.30;49.80
69895;DHT22;57172;52.034;5.090;2023-04-02T15:30:19;21.60;48.40
69895;DHT22;57172;52.034;5.090;2023-04-02T15:32:49;21.30;49.80
69895;DHT22;57172;52.034;5.090;2023-04-02T15:52:00;20.50;53.50
69895;DHT22;57172;52.034;5.090;2023-04-02T15:55:09;20.70;56.20
69895;DHT22;57172;52.034;5.090;2023-04-02T15:57:50;20.80;55.20
69895;DHT22;57172;52.034;5.090;2023-04-02T16:00:28;20.80;51.60
69895;DHT22;57172;52.034;5.090;2023-04-02T16:06:14;20.60;51.70
69895;DHT22;57172;52.034;5.090;2023-04-02T16:11:14;19.90;52.50
69895;DHT22;57172;52.034;5.090;2023-04-02T16:13:41;19.70;51.80
69895;DHT22;57172;52.034;5.090;2023-04-02T16:19:11;19.40;51.70
69895;DHT22;57172;52.034;5.090;2023-04-02T16:21:49;19.30;51.00
69895;DHT22;57172;52.034;5.090;2023-04-02T16:24:18;19.10;53.20
69895;DHT22;57172;52.034;5.090;2023-04-02T16:32:41;18.60;51.80
69895;DHT22;57172;52.034;5.090;2023-04-02T16:41:06;18.20;52.40
69895;DHT22;57172;52.034;5.090;2023-04-02T17:01:05;17.50;52.10
69895;DHT22;57172;52.034;5.090;2023-04-02T17:14:50;16.20;51.40
69895;DHT22;57172;52.034;5.090;2023-04-02T17:17:19;16.00;51.90
69895;DHT22;57172;52.034;5.090;2023-04-02T17:19:49;15.70;50.90
69895;DHT22;57172;52.034;5.090;2023-04-02T17:22:20;15.50;51.80
69895;DHT22;57172;52.034;5.090;2023-04-02T17:24:57;15.40;51.20
69895;DHT22;57172;52.034;5.090;2023-04-02T17:27:32;15.20;53.10
69895;DHT22;57172;52.034;5.090;2023-04-02T17:32:49;14.70;52.30
69895;DHT22;57172;52.034;5.090;2023-04-02T17:35:38;14.40;53.50
69895;DHT22;57172;52.034;5.090;2023-04-02T17:38:50;14.10;54.00
69895;DHT22;57172;52.034;5.090;2023-04-02T17:41:19;13.80;54.50
69895;DHT22;57172;52.034;5.090;2023-04-02T17:46:32;13.40;56.30
69895;DHT22;57172;52.034;5.090;2023-04-02T17:51:59;13.00;56.40
69895;DHT22;57172;52.034;5.090;2023-04-02T17:54:47;12.70;56.00
69895;DHT22;57172;52.034;5.090;2023-04-02T17:57:40;12.60;57.30
69895;DHT22;57172;52.034;5.090;2023-04-02T18:05:43;12.30;58.60
69895;DHT22;57172;52.034;5.090;2023-04-02T18:20:24;11.80;59.10
69895;DHT22;57172;52.034;5.090;2023-04-02T18:28:56;11.40;61.20
69895;DHT22;57172;52.034;5.090;2023-04-02T18:42:38;11.20;62.90
69895;DHT22;57172;52.034;5.090;2023-04-02T18:50:35;11.00;61.80
69895;DHT22;57172;52.034;5.090;2023-04-02T18:53:14;10.90;61.70
69895;DHT22;57172;52.034;5.090;2023-04-02T18:55:49;10.70;62.40
69895;DHT22;57172;52.034;5.090;2023-04-02T18:59:13;10.60;63.10
69895;DHT22;57172;52.034;5.090;2023-04-02T19:01:12;10.60;63.30
69895;DHT22;57172;52.034;5.090;2023-04-02T19:03:44;10.60;63.70
69895;DHT22;57172;52.034;5.090;2023-04-02T19:06:17;10.60;64.00
69895;DHT22;57172;52.034;5.090;2023-04-02T19:09:23;10.50;64.10
69895;DHT22;57172;52.034;5.090;2023-04-02T19:11:42;10.50;64.30
69895;DHT22;57172;52.034;5.090;2023-04-02T19:14:11;10.50;64.30
69895;DHT22;57172;52.034;5.090;2023-04-02T19:17:00;10.50;64.10
69895;DHT22;57172;52.034;5.090;2023-04-02T19:28:05;10.20;65.30
69895;DHT22;57172;52.034;5.090;2023-04-02T19:30:50;10.20;64.90
69895;DHT22;57172;52.034;5.090;2023-04-02T19:33:31;10.10;65.30
69895;DHT22;57172;52.034;5.090;2023-04-02T19:44:20;10.00;66.10
69895;DHT22;57172;52.034;5.090;2023-04-02T19:46:48;10.00;65.90
69895;DHT22;57172;52.034;5.090;2023-04-02T19:49:24;10.00;66.00
69895;DHT22;57172;52.034;5.090;2023-04-02T19:51:52;9.90;66.30
69895;DHT22;57172;52.034;5.090;2023-04-02T19:54:19;9.80;66.40
69895;DHT22;57172;52.034;5.090;2023-04-02T19:56:46;9.80;66.00
69895;DHT22;57172;52.034;5.090;2023-04-02T19:59:14;9.70;66.50
69895;DHT22;57172;52.034;5.090;2023-04-02T20:01:44;9.60;66.50
69895;DHT22;57172;52.034;5.090;2023-04-02T20:04:12;9.60;66.80
69895;DHT22;57172;52.034;5.090;2023-04-02T20:06:39;9.50;66.90
69895;DHT22;57172;52.034;5.090;2023-04-02T20:09:06;9.50;67.00
69895;DHT22;57172;52.034;5.090;2023-04-02T20:11:36;9.50;67.10
69895;DHT22;57172;52.034;5.090;2023-04-02T20:14:04;9.40;66.80
69895;DHT22;57172;52.034;5.090;2023-04-02T20:16:32;9.40;67.00
69895;DHT22;57172;52.034;5.090;2023-04-02T20:19:00;9.30;67.10
69895;DHT22;57172;52.034;5.090;2023-04-02T20:21:27;9.30;67.20
69895;DHT22;57172;52.034;5.090;2023-04-02T20:23:55;9.20;67.30
69895;DHT22;57172;52.034;5.090;2023-04-02T20:26:21;9.20;67.50
69895;DHT22;57172;52.034;5.090;2023-04-02T20:28:49;9.10;67.80
69895;DHT22;57172;52.034;5.090;2023-04-02T20:31:17;9.10;68.10
69895;DHT22;57172;52.034;5.090;2023-04-02T20:33:44;9.10;67.90
69895;DHT22;57172;52.034;5.090;2023-04-02T20:36:16;9.10;67.10
69895;DHT22;57172;52.034;5.090;2023-04-02T20:38:43;9.00;67.30
69895;DHT22;57172;52.034;5.090;2023-04-02T20:41:11;8.90;67.40
69895;DHT22;57172;52.034;5.090;2023-04-02T20:43:41;8.90;67.70
69895;DHT22;57172;52.034;5.090;2023-04-02T20:46:10;8.80;67.80
69895;DHT22;57172;52.034;5.090;2023-04-02T20:48:38;8.80;67.50
69895;DHT22;57172;52.034;5.090;2023-04-02T20:51:07;8.70;67.40
69895;DHT22;57172;52.034;5.090;2023-04-02T20:53:35;8.60;66.80
69895;DHT22;57172;52.034;5.090;2023-04-02T20:56:09;8.60;67.40
69895;DHT22;57172;52.034;5.090;2023-04-02T20:58:37;8.50;67.50
69895;DHT22;57172;52.034;5.090;2023-04-02T21:01:13;8.50;67.30
69895;DHT22;57172;52.034;5.090;2023-04-02T21:03:42;8.50;67.60
69895;DHT22;57172;52.034;5.090;2023-04-02T21:06:17;8.40;67.10
69895;DHT22;57172;52.034;5.090;2023-04-02T21:08:45;8.30;67.50
69895;DHT22;57172;52.034;5.090;2023-04-02T21:11:12;8.30;67.00
69895;DHT22;57172;52.034;5.090;2023-04-02T21:13:39;8.20;67.30
69895;DHT22;57172;52.034;5.090;2023-04-02T21:16:18;8.20;67.20
69895;DHT22;57172;52.034;5.090;2023-04-02T21:18:50;8.10;67.40
69895;DHT22;57172;52.034;5.090;2023-04-02T21:21:18;8.10;67.60
69895;DHT22;57172;52.034;5.090;2023-04-02T21:23:47;8.00;67.20
69895;DHT22;57172;52.034;5.090;2023-04-02T21:26:18;8.00;67.40
69895;DHT22;57172;52.034;5.090;2023-04-02T21:28:46;7.90;67.80
69895;DHT22;57172;52.034;5.090;2023-04-02T21:31:14;7.90;67.80
69895;DHT22;57172;52.034;5.090;2023-04-02T21:33:43;7.80;67.90
69895;DHT22;57172;52.034;5.090;2023-04-02T21:36:21;7.80;67.60
69895;DHT22;57172;52.034;5.090;2023-04-02T21:38:54;7.70;67.90
69895;DHT22;57172;52.034;5.090;2023-04-02T21:41:23;7.60;67.90
69895;DHT22;57172;52.034;5.090;2023-04-02T21:43:52;7.60;68.00
69895;DHT22;57172;52.034;5.090;2023-04-02T21:46:22;7.60;68.00